Friday, May 25, 2018, 8:49 AM EDT
Back to Local

KBID, Block Island, Block Island State Airport

Location: Block Island, RI, United States Lat: 41.167
Local Time: 8:49 AM EDT (12:49 GMT) Lon: -71.567
Time Zone: US/Eastern Elev: 108 ft

Show me the last for .
Show Decoded

2018-05-25 07:56 METAR KBID 251156Z AUTO 23012KT 10SM CLR 16/12 A3003 RMK AO2 SLP173 60000
                 T01560122 10156 20117 50001 =
2018-05-25 06:56 METAR KBID 251056Z AUTO 23012KT 10SM CLR 14/12 A3004 RMK AO2 SLP175 T01390117 =
2018-05-25 05:56 METAR KBID 250956Z AUTO 24012KT 10SM CLR 13/11 A3003 RMK AO2 SLP174 T01280111 =
2018-05-25 03:56 METAR KBID 250756Z AUTO 23013KT 10SM CLR 12/10 A3004 RMK AO2 SLP177 T01220100 =
2018-05-25 02:56 METAR KBID 250656Z AUTO 20010KT 10SM CLR 12/12 A3006 RMK AO2 RAE22 SLP182 P0000
                 T01220117 =
2018-05-25 02:37 METAR KBID 250637Z AUTO 21011KT 10SM SCT002 12/12 A3007 RMK AO2 RAE22 P0000 =
2018-05-25 02:22 METAR KBID 250622Z AUTO 21011KT 3SM BR BKN002 12/12 A3007 RMK AO2 RAE22 P0000 =
2018-05-25 02:15 METAR KBID 250615Z AUTO 21010KT 1 1/4SM -RA BR OVC002 12/12 A3008 RMK AO2 P0000
                 =
2018-05-25 02:09 METAR KBID 250609Z AUTO 21009KT 3/4SM -RA BR OVC002 12/12 A3008 RMK AO2 P0000 =
2018-05-25 01:56 METAR KBID 250556Z AUTO 22010KT 1/2SM -RA FG OVC002 12/12 A3009 RMK AO2 SLP192
                 P0000 60000 T01170117 10122 20106 58016 =
2018-05-25 00:56 METAR KBID 250456Z AUTO 22011KT 1/2SM -RA FG OVC002 12/12 A3010 RMK AO2 RAB30
                 SLP198 P0000 T01170117 =
2018-05-25 00:38 METAR KBID 250438Z AUTO 21011KT 3/4SM -RA BR OVC002 12/12 A3010 RMK AO2 RAB30
                 P0000 =
2018-05-25 00:30 METAR KBID 250430Z AUTO 21012KT 1/2SM -RA FG OVC002 12/12 A3010 RMK AO2 RAB30
                 P0000 =
2018-05-25 00:21 METAR KBID 250421Z AUTO 21011KT 3/4SM BR OVC002 12/11 A3011 RMK AO2 =
2018-05-25 00:16 METAR KBID 250416Z AUTO 21011KT 1 3/4SM BR OVC002 11/11 A3011 RMK AO2 VIS 3/4V5
                 =
2018-05-24 23:56 METAR KBID 250356Z AUTO 22009KT 10SM OVC002 11/11 A3013 RMK AO2 SLP205 T01110106
                 401890106 =
2018-05-24 22:56 METAR KBID 250256Z AUTO 20010KT 10SM OVC002 11/11 A3013 RMK AO2 RAE04 SLP208
                 P0000 60000 T01110106 50002 =
2018-05-24 22:22 METAR KBID 250222Z AUTO 20007KT 6SM BR OVC002 11/11 A3014 RMK AO2 RAE04 P0000 =
2018-05-24 22:06 METAR KBID 250206Z AUTO 20007KT 2SM BR OVC002 11/11 A3014 RMK AO2 VIS 1 1/2V5
                 RAE04 P0000 =
2018-05-24 21:56 METAR KBID 250156Z AUTO 19008KT 1 3/4SM -RA BR OVC002 11/11 A3014 RMK AO2 VIS
                 1V3 SLP211 P0000 T01060106 =
2018-05-24 21:38 METAR KBID 250138Z AUTO 18011KT 1 1/4SM -RA BR OVC002 11/11 A3014 RMK AO2 P0000
                 =
2018-05-24 21:03 METAR KBID 250103Z AUTO 18009KT 3/4SM -RA BR OVC002 11/11 A3013 RMK AO2 P0000 =
2018-05-24 20:56 METAR KBID 250056Z AUTO 18007KT 1SM -RA BR OVC002 11/11 A3013 RMK AO2 VIS 1/2V1
                 1/2 SLP206 P0000 T01060106 =
2018-05-24 20:42 METAR KBID 250042Z AUTO 18008KT 1SM -RA BR OVC002 11/11 A3013 RMK AO2 VIS 1/2V1
                 3/4 P0000 =
2018-05-24 20:15 METAR KBID 250015Z AUTO 19011KT 1/2SM -RA FG OVC002 11/11 A3013 RMK AO2 P0000 =
2018-05-24 19:56 METAR KBID 242356Z AUTO 19009KT 3/4SM -RA BR OVC002 11/11 A3013 RMK AO2 RAB03
                 SLP206 P0000 60000 T01110106 10156 20111 50001 =
2018-05-24 19:51 METAR KBID 242351Z AUTO 18009KT 1SM -RA BR OVC002 11/11 A3013 RMK AO2 VIS 1/2V2
                 RAB03 P0000 =
2018-05-24 19:17 METAR KBID 242317Z AUTO 20008KT 1 1/4SM -RA BR OVC002 12/11 A3014 RMK AO2 VIS
                 1/2V2 1/2 RAB03 P0000 =
2018-05-24 19:06 METAR KBID 242306Z AUTO 20009KT 1SM -RA BR OVC002 11/11 A3014 RMK AO2 VIS 1/2V2
                 RAB03 P0000 =
2018-05-24 18:56 METAR KBID 242256Z AUTO 19009KT 1 1/2SM BR OVC002 12/11 A3013 RMK AO2 VIS 3/4V3
                 SLP206 T01170111 =
2018-05-24 18:41 METAR KBID 242241Z AUTO 17009KT 2SM BR OVC002 12/11 A3012 RMK AO2 VIS 1V5 =
2018-05-24 18:30 METAR KBID 242230Z AUTO 18009KT 7SM OVC002 12/11 A3012 RMK AO2 =
2018-05-24 18:04 METAR KBID 242204Z AUTO 18011KT 10SM BKN004 12/11 A3012 RMK AO2 =
2018-05-24 17:56 METAR KBID 242156Z AUTO 19014KT 10SM SCT004 13/11 A3012 RMK AO2 SLP204 T01280106
                 =
2018-05-24 16:56 METAR KBID 242056Z AUTO 16013KT 10SM CLR 14/11 A3013 RMK AO2 SLP205 T01390111
                 50000 =
2018-05-24 15:56 METAR KBID 241956Z AUTO 13014KT 10SM CLR 14/11 A3012 RMK AO2 SLP205 T01390111 =
2018-05-24 14:56 METAR KBID 241856Z AUTO 12011KT 10SM SCT004 14/13 A3013 RMK AO2 SLP207 T01440128
                 =
2018-05-24 13:56 METAR KBID 241756Z AUTO 15009KT 10SM FEW007 15/13 A3013 RMK AO2 SLP205 T01500133
                 10161 20139 58001 =
2018-05-24 13:48 METAR KBID 241748Z AUTO 14010KT 10SM FEW007 15/13 A3012 RMK AO2 =
2018-05-24 12:56 METAR KBID 241656Z AUTO 12008KT 10SM CLR 16/13 A3013 RMK AO2 SLP207 T01560133 =
2018-05-24 12:13 METAR KBID 241613Z AUTO 12008KT 10SM SCT006 16/13 A3013 RMK AO2 =
2018-05-24 11:56 METAR KBID 241556Z AUTO 13007KT 10SM BKN004 15/13 A3013 RMK AO2 CIG 002V007
                 SLP207 T01500133 =
2018-05-24 10:56 METAR KBID 241456Z AUTO 10006KT 8SM OVC004 14/13 A3013 RMK AO2 SLP206 T01440133
                 53013 =
2018-05-24 10:44 METAR KBID 241444Z AUTO 09008KT 7SM BKN004 14/13 A3012 RMK AO2 =
2018-05-24 10:35 METAR KBID 241435Z AUTO 09007KT 8SM SCT004 14/13 A3013 RMK AO2 =
2018-05-24 09:56 METAR KBID 241356Z AUTO 07005KT 10SM CLR 16/13 A3011 RMK AO2 SLP200 T01560133 =
2018-05-24 08:56 METAR KBID 241256Z AUTO 35004KT 10SM CLR 16/13 A3010 RMK AO2 SLP198 T01610133 =

Support USWX by starting your Amazon purchase here.